sensor_id;sensor_type;location;lat;lon;timestamp;P1;durP1;ratioP1;P2;durP2;ratioP2
61635;SDS011;59438;45.014;39.006;2022-10-31T00:02:20;4.95;;;2.45;;
61635;SDS011;59438;45.014;39.006;2022-10-31T00:04:46;4.82;;;2.30;;
61635;SDS011;59438;45.014;39.006;2022-10-31T00:07:14;3.83;;;2.35;;
61635;SDS011;59438;45.014;39.006;2022-10-31T00:09:41;3.88;;;2.42;;
61635;SDS011;59438;45.014;39.006;2022-10-31T00:12:07;4.85;;;2.42;;
61635;SDS011;59438;45.014;39.006;2022-10-31T00:14:33;4.72;;;2.53;;
61635;SDS011;59438;45.014;39.006;2022-10-31T00:17:00;7.93;;;2.70;;
61635;SDS011;59438;45.014;39.006;2022-10-31T00:19:26;5.03;;;2.50;;
61635;SDS011;59438;45.014;39.006;2022-10-31T00:21:52;2.85;;;2.30;;
61635;SDS011;59438;45.014;39.006;2022-10-31T00:24:20;4.18;;;2.33;;
61635;SDS011;59438;45.014;39.006;2022-10-31T00:26:47;7.85;;;2.45;;
61635;SDS011;59438;45.014;39.006;2022-10-31T00:29:13;4.65;;;2.60;;
61635;SDS011;59438;45.014;39.006;2022-10-31T00:31:40;3.30;;;2.40;;
61635;SDS011;59438;45.014;39.006;2022-10-31T00:34:06;5.22;;;2.40;;
61635;SDS011;59438;45.014;39.006;2022-10-31T00:36:33;5.85;;;2.20;;
61635;SDS011;59438;45.014;39.006;2022-10-31T00:38:59;3.13;;;2.25;;
61635;SDS011;59438;45.014;39.006;2022-10-31T00:41:27;3.38;;;2.60;;
61635;SDS011;59438;45.014;39.006;2022-10-31T00:43:53;4.38;;;2.38;;
61635;SDS011;59438;45.014;39.006;2022-10-31T00:46:20;4.38;;;2.20;;
61635;SDS011;59438;45.014;39.006;2022-10-31T00:48:46;2.92;;;2.15;;
61635;SDS011;59438;45.014;39.006;2022-10-31T00:51:12;2.97;;;2.40;;
61635;SDS011;59438;45.014;39.006;2022-10-31T00:53:39;2.67;;;2.25;;
61635;SDS011;59438;45.014;39.006;2022-10-31T00:56:05;4.90;;;2.20;;
61635;SDS011;59438;45.014;39.006;2022-10-31T00:58:34;2.72;;;2.08;;
61635;SDS011;59438;45.014;39.006;2022-10-31T01:01:00;3.60;;;2.10;;
61635;SDS011;59438;45.014;39.006;2022-10-31T01:03:27;2.00;;;1.80;;
61635;SDS011;59438;45.014;39.006;2022-10-31T01:05:58;3.00;;;2.22;;
61635;SDS011;59438;45.014;39.006;2022-10-31T01:08:26;3.08;;;2.38;;
61635;SDS011;59438;45.014;39.006;2022-10-31T01:11:02;4.18;;;2.90;;
61635;SDS011;59438;45.014;39.006;2022-10-31T01:13:31;4.43;;;2.50;;
61635;SDS011;59438;45.014;39.006;2022-10-31T01:15:59;4.57;;;2.78;;
61635;SDS011;59438;45.014;39.006;2022-10-31T01:18:26;5.05;;;2.70;;
61635;SDS011;59438;45.014;39.006;2022-10-31T01:21:03;3.53;;;2.80;;
61635;SDS011;59438;45.014;39.006;2022-10-31T01:23:31;3.65;;;2.30;;
61635;SDS011;59438;45.014;39.006;2022-10-31T01:25:59;3.35;;;2.40;;
61635;SDS011;59438;45.014;39.006;2022-10-31T01:28:31;2.33;;;2.13;;
61635;SDS011;59438;45.014;39.006;2022-10-31T01:31:03;3.15;;;2.10;;
61635;SDS011;59438;45.014;39.006;2022-10-31T01:33:31;2.72;;;1.75;;
61635;SDS011;59438;45.014;39.006;2022-10-31T01:35:58;2.38;;;2.05;;
61635;SDS011;59438;45.014;39.006;2022-10-31T01:38:24;3.42;;;2.00;;
61635;SDS011;59438;45.014;39.006;2022-10-31T01:40:51;2.30;;;2.08;;
61635;SDS011;59438;45.014;39.006;2022-10-31T01:43:18;3.70;;;2.13;;
61635;SDS011;59438;45.014;39.006;2022-10-31T01:45:46;3.28;;;2.00;;
61635;SDS011;59438;45.014;39.006;2022-10-31T01:48:19;5.75;;;2.17;;
61635;SDS011;59438;45.014;39.006;2022-10-31T01:50:50;3.05;;;2.17;;
61635;SDS011;59438;45.014;39.006;2022-10-31T01:53:18;2.30;;;2.10;;
61635;SDS011;59438;45.014;39.006;2022-10-31T01:55:45;3.33;;;2.17;;
61635;SDS011;59438;45.014;39.006;2022-10-31T01:58:15;5.03;;;2.60;;
61635;SDS011;59438;45.014;39.006;2022-10-31T02:00:45;2.63;;;1.90;;
61635;SDS011;59438;45.014;39.006;2022-10-31T02:03:14;3.08;;;1.80;;
61635;SDS011;59438;45.014;39.006;2022-10-31T02:05:43;2.05;;;1.70;;
61635;SDS011;59438;45.014;39.006;2022-10-31T02:08:12;1.75;;;1.60;;
61635;SDS011;59438;45.014;39.006;2022-10-31T02:10:42;2.35;;;1.70;;
61635;SDS011;59438;45.014;39.006;2022-10-31T02:13:09;3.10;;;1.70;;
61635;SDS011;59438;45.014;39.006;2022-10-31T02:15:37;2.10;;;1.63;;
61635;SDS011;59438;45.014;39.006;2022-10-31T02:18:05;3.13;;;1.77;;
61635;SDS011;59438;45.014;39.006;2022-10-31T02:20:35;3.70;;;1.75;;
61635;SDS011;59438;45.014;39.006;2022-10-31T02:31:43;2.83;;;1.67;;
61635;SDS011;59438;45.014;39.006;2022-10-31T02:34:16;2.20;;;1.70;;
61635;SDS011;59438;45.014;39.006;2022-10-31T02:39:16;3.20;;;1.63;;
61635;SDS011;59438;45.014;39.006;2022-10-31T02:41:51;5.47;;;1.90;;
61635;SDS011;59438;45.014;39.006;2022-10-31T02:44:28;3.28;;;1.95;;
61635;SDS011;59438;45.014;39.006;2022-10-31T02:47:00;9.55;;;1.88;;
61635;SDS011;59438;45.014;39.006;2022-10-31T02:49:32;4.45;;;2.00;;
61635;SDS011;59438;45.014;39.006;2022-10-31T02:52:12;5.32;;;1.90;;
61635;SDS011;59438;45.014;39.006;2022-10-31T02:54:40;2.40;;;1.80;;
61635;SDS011;59438;45.014;39.006;2022-10-31T02:57:07;4.28;;;1.85;;
61635;SDS011;59438;45.014;39.006;2022-10-31T02:59:34;3.58;;;1.90;;
61635;SDS011;59438;45.014;39.006;2022-10-31T03:02:11;2.88;;;1.80;;
61635;SDS011;59438;45.014;39.006;2022-10-31T03:04:55;4.88;;;1.80;;
61635;SDS011;59438;45.014;39.006;2022-10-31T03:07:56;4.20;;;1.33;;
61635;SDS011;59438;45.014;39.006;2022-10-31T03:10:31;2.92;;;1.50;;
61635;SDS011;59438;45.014;39.006;2022-10-31T03:13:06;1.65;;;1.42;;
61635;SDS011;59438;45.014;39.006;2022-10-31T03:15:36;1.75;;;1.35;;
61635;SDS011;59438;45.014;39.006;2022-10-31T03:18:08;1.50;;;1.38;;
61635;SDS011;59438;45.014;39.006;2022-10-31T03:20:39;1.95;;;1.35;;
61635;SDS011;59438;45.014;39.006;2022-10-31T03:23:12;2.50;;;1.48;;
61635;SDS011;59438;45.014;39.006;2022-10-31T03:25:42;1.45;;;1.20;;
61635;SDS011;59438;45.014;39.006;2022-10-31T03:28:10;1.70;;;1.30;;
61635;SDS011;59438;45.014;39.006;2022-10-31T03:30:38;3.63;;;1.30;;
61635;SDS011;59438;45.014;39.006;2022-10-31T03:33:10;1.52;;;1.40;;
61635;SDS011;59438;45.014;39.006;2022-10-31T03:35:44;1.75;;;1.30;;
61635;SDS011;59438;45.014;39.006;2022-10-31T03:38:15;2.38;;;1.50;;
61635;SDS011;59438;45.014;39.006;2022-10-31T03:40:44;2.65;;;1.35;;
61635;SDS011;59438;45.014;39.006;2022-10-31T03:43:13;4.05;;;1.50;;
61635;SDS011;59438;45.014;39.006;2022-10-31T03:45:44;1.48;;;1.20;;
61635;SDS011;59438;45.014;39.006;2022-10-31T03:48:14;1.48;;;1.30;;
61635;SDS011;59438;45.014;39.006;2022-10-31T03:50:45;3.55;;;1.35;;
61635;SDS011;59438;45.014;39.006;2022-10-31T03:53:16;1.55;;;1.40;;
61635;SDS011;59438;45.014;39.006;2022-10-31T03:55:49;2.65;;;1.20;;
61635;SDS011;59438;45.014;39.006;2022-10-31T03:58:24;2.05;;;1.30;;
61635;SDS011;59438;45.014;39.006;2022-10-31T04:00:54;1.98;;;1.30;;
61635;SDS011;59438;45.014;39.006;2022-10-31T04:03:25;2.47;;;1.20;;
61635;SDS011;59438;45.014;39.006;2022-10-31T04:05:55;2.55;;;1.42;;
61635;SDS011;59438;45.014;39.006;2022-10-31T04:08:24;1.35;;;1.13;;
61635;SDS011;59438;45.014;39.006;2022-10-31T04:10:56;1.55;;;1.20;;
61635;SDS011;59438;45.014;39.006;2022-10-31T04:13:25;2.20;;;1.25;;
61635;SDS011;59438;45.014;39.006;2022-10-31T04:15:55;3.17;;;1.23;;
61635;SDS011;59438;45.014;39.006;2022-10-31T04:18:22;1.33;;;1.20;;
61635;SDS011;59438;45.014;39.006;2022-10-31T04:20:59;1.48;;;1.10;;
61635;SDS011;59438;45.014;39.006;2022-10-31T04:23:26;1.63;;;1.20;;
61635;SDS011;59438;45.014;39.006;2022-10-31T04:25:53;2.10;;;1.30;;
61635;SDS011;59438;45.014;39.006;2022-10-31T04:28:20;1.42;;;1.30;;
61635;SDS011;59438;45.014;39.006;2022-10-31T04:30:47;4.47;;;1.30;;
61635;SDS011;59438;45.014;39.006;2022-10-31T04:33:13;1.45;;;1.20;;
61635;SDS011;59438;45.014;39.006;2022-10-31T04:35:41;1.77;;;1.27;;
61635;SDS011;59438;45.014;39.006;2022-10-31T04:38:08;2.88;;;1.40;;
61635;SDS011;59438;45.014;39.006;2022-10-31T04:40:35;1.40;;;1.30;;
61635;SDS011;59438;45.014;39.006;2022-10-31T04:43:01;2.08;;;1.08;;
61635;SDS011;59438;45.014;39.006;2022-10-31T04:45:28;1.60;;;1.20;;
61635;SDS011;59438;45.014;39.006;2022-10-31T04:47:54;2.13;;;1.20;;
61635;SDS011;59438;45.014;39.006;2022-10-31T04:50:20;2.03;;;1.15;;
61635;SDS011;59438;45.014;39.006;2022-10-31T04:52:48;1.38;;;1.17;;
61635;SDS011;59438;45.014;39.006;2022-10-31T04:55:15;1.70;;;1.08;;
61635;SDS011;59438;45.014;39.006;2022-10-31T04:57:41;1.23;;;1.13;;
61635;SDS011;59438;45.014;39.006;2022-10-31T05:00:09;1.92;;;1.10;;
61635;SDS011;59438;45.014;39.006;2022-10-31T05:02:42;1.65;;;1.10;;
61635;SDS011;59438;45.014;39.006;2022-10-31T05:05:09;1.13;;;1.02;;
61635;SDS011;59438;45.014;39.006;2022-10-31T05:07:38;1.70;;;1.20;;
61635;SDS011;59438;45.014;39.006;2022-10-31T05:10:09;0.98;;;0.98;;
61635;SDS011;59438;45.014;39.006;2022-10-31T05:12:37;0.80;;;0.80;;
61635;SDS011;59438;45.014;39.006;2022-10-31T05:15:03;1.60;;;0.90;;
61635;SDS011;59438;45.014;39.006;2022-10-31T05:17:30;4.25;;;1.80;;
61635;SDS011;59438;45.014;39.006;2022-10-31T05:19:57;4.85;;;2.80;;
61635;SDS011;59438;45.014;39.006;2022-10-31T05:22:23;3.83;;;2.92;;
61635;SDS011;59438;45.014;39.006;2022-10-31T05:24:50;3.05;;;2.33;;
61635;SDS011;59438;45.014;39.006;2022-10-31T05:27:18;3.08;;;2.10;;
61635;SDS011;59438;45.014;39.006;2022-10-31T05:29:44;2.08;;;1.70;;
61635;SDS011;59438;45.014;39.006;2022-10-31T05:32:10;1.98;;;1.20;;
61635;SDS011;59438;45.014;39.006;2022-10-31T05:34:37;1.85;;;1.30;;
61635;SDS011;59438;45.014;39.006;2022-10-31T05:37:03;2.28;;;1.67;;
61635;SDS011;59438;45.014;39.006;2022-10-31T05:39:29;99.00;;;4.65;;
61635;SDS011;59438;45.014;39.006;2022-10-31T05:41:56;2.45;;;1.10;;
61635;SDS011;59438;45.014;39.006;2022-10-31T05:44:24;3.17;;;1.10;;
61635;SDS011;59438;45.014;39.006;2022-10-31T05:46:50;1.23;;;1.08;;
61635;SDS011;59438;45.014;39.006;2022-10-31T05:49:16;1.40;;;1.10;;
61635;SDS011;59438;45.014;39.006;2022-10-31T05:51:43;2.38;;;1.20;;
61635;SDS011;59438;45.014;39.006;2022-10-31T05:54:09;4.75;;;1.60;;
61635;SDS011;59438;45.014;39.006;2022-10-31T05:56:36;1.15;;;1.00;;
61635;SDS011;59438;45.014;39.006;2022-10-31T05:59:02;1.10;;;1.00;;
61635;SDS011;59438;45.014;39.006;2022-10-31T06:01:30;1.65;;;1.27;;
61635;SDS011;59438;45.014;39.006;2022-10-31T06:03:56;4.38;;;1.63;;
61635;SDS011;59438;45.014;39.006;2022-10-31T06:06:23;4.82;;;1.33;;
61635;SDS011;59438;45.014;39.006;2022-10-31T06:08:49;3.45;;;1.67;;
61635;SDS011;59438;45.014;39.006;2022-10-31T06:11:15;1.70;;;1.60;;
61635;SDS011;59438;45.014;39.006;2022-10-31T06:13:42;4.15;;;1.60;;
61635;SDS011;59438;45.014;39.006;2022-10-31T06:16:10;2.30;;;1.40;;
61635;SDS011;59438;45.014;39.006;2022-10-31T06:18:38;2.03;;;1.40;;
61635;SDS011;59438;45.014;39.006;2022-10-31T06:21:04;1.58;;;1.35;;
61635;SDS011;59438;45.014;39.006;2022-10-31T06:23:30;2.13;;;1.40;;
61635;SDS011;59438;45.014;39.006;2022-10-31T06:25:57;1.92;;;1.40;;
61635;SDS011;59438;45.014;39.006;2022-10-31T06:28:23;3.20;;;1.20;;
61635;SDS011;59438;45.014;39.006;2022-10-31T06:30:50;1.95;;;1.52;;
61635;SDS011;59438;45.014;39.006;2022-10-31T06:33:16;2.75;;;1.60;;
61635;SDS011;59438;45.014;39.006;2022-10-31T06:35:46;2.88;;;1.80;;
61635;SDS011;59438;45.014;39.006;2022-10-31T06:38:13;8.40;;;2.80;;
61635;SDS011;59438;45.014;39.006;2022-10-31T06:40:39;9.95;;;2.95;;
61635;SDS011;59438;45.014;39.006;2022-10-31T06:43:06;8.68;;;3.15;;
61635;SDS011;59438;45.014;39.006;2022-10-31T06:45:33;8.85;;;3.00;;
61635;SDS011;59438;45.014;39.006;2022-10-31T06:48:00;9.05;;;3.03;;
61635;SDS011;59438;45.014;39.006;2022-10-31T06:50:26;10.73;;;3.85;;
61635;SDS011;59438;45.014;39.006;2022-10-31T06:52:54;6.65;;;3.35;;
61635;SDS011;59438;45.014;39.006;2022-10-31T06:55:22;7.05;;;3.50;;
61635;SDS011;59438;45.014;39.006;2022-10-31T06:57:49;3.67;;;2.30;;
61635;SDS011;59438;45.014;39.006;2022-10-31T07:00:16;5.15;;;2.10;;
61635;SDS011;59438;45.014;39.006;2022-10-31T07:02:43;3.50;;;1.90;;
61635;SDS011;59438;45.014;39.006;2022-10-31T07:05:09;4.88;;;2.30;;
61635;SDS011;59438;45.014;39.006;2022-10-31T07:07:36;5.15;;;2.50;;
61635;SDS011;59438;45.014;39.006;2022-10-31T07:10:04;6.50;;;3.00;;
61635;SDS011;59438;45.014;39.006;2022-10-31T07:12:30;8.32;;;4.40;;
61635;SDS011;59438;45.014;39.006;2022-10-31T07:14:57;4.00;;;3.00;;
61635;SDS011;59438;45.014;39.006;2022-10-31T07:17:23;6.15;;;3.20;;
61635;SDS011;59438;45.014;39.006;2022-10-31T07:19:50;5.57;;;2.75;;
61635;SDS011;59438;45.014;39.006;2022-10-31T07:22:16;5.32;;;3.20;;
61635;SDS011;59438;45.014;39.006;2022-10-31T07:24:43;7.07;;;3.28;;
61635;SDS011;59438;45.014;39.006;2022-10-31T07:27:11;11.57;;;3.60;;
61635;SDS011;59438;45.014;39.006;2022-10-31T07:29:37;9.45;;;3.75;;
61635;SDS011;59438;45.014;39.006;2022-10-31T07:32:04;40.97;;;4.10;;
61635;SDS011;59438;45.014;39.006;2022-10-31T07:34:30;6.10;;;3.65;;
61635;SDS011;59438;45.014;39.006;2022-10-31T07:36:56;5.78;;;3.72;;
61635;SDS011;59438;45.014;39.006;2022-10-31T07:39:23;9.30;;;4.05;;
61635;SDS011;59438;45.014;39.006;2022-10-31T07:41:49;9.23;;;4.70;;
61635;SDS011;59438;45.014;39.006;2022-10-31T07:44:18;10.88;;;4.80;;
61635;SDS011;59438;45.014;39.006;2022-10-31T07:46:45;12.18;;;4.78;;
61635;SDS011;59438;45.014;39.006;2022-10-31T07:49:11;12.73;;;4.45;;
61635;SDS011;59438;45.014;39.006;2022-10-31T07:51:38;11.52;;;4.38;;
61635;SDS011;59438;45.014;39.006;2022-10-31T07:54:04;7.80;;;4.00;;
61635;SDS011;59438;45.014;39.006;2022-10-31T07:56:30;10.73;;;4.20;;
61635;SDS011;59438;45.014;39.006;2022-10-31T07:58:57;9.95;;;4.30;;
61635;SDS011;59438;45.014;39.006;2022-10-31T08:01:25;9.30;;;4.25;;
61635;SDS011;59438;45.014;39.006;2022-10-31T08:03:51;7.63;;;4.10;;
61635;SDS011;59438;45.014;39.006;2022-10-31T08:06:17;8.38;;;3.95;;
61635;SDS011;59438;45.014;39.006;2022-10-31T08:08:44;7.60;;;4.05;;
61635;SDS011;59438;45.014;39.006;2022-10-31T08:11:10;9.45;;;4.70;;
61635;SDS011;59438;45.014;39.006;2022-10-31T08:13:37;9.57;;;4.57;;
61635;SDS011;59438;45.014;39.006;2022-10-31T08:16:03;8.65;;;4.40;;
61635;SDS011;59438;45.014;39.006;2022-10-31T08:18:32;10.90;;;5.15;;
61635;SDS011;59438;45.014;39.006;2022-10-31T08:20:58;9.60;;;4.68;;
61635;SDS011;59438;45.014;39.006;2022-10-31T08:23:24;10.32;;;5.28;;
61635;SDS011;59438;45.014;39.006;2022-10-31T08:25:51;11.20;;;5.72;;
61635;SDS011;59438;45.014;39.006;2022-10-31T08:28:18;7.95;;;5.63;;
61635;SDS011;59438;45.014;39.006;2022-10-31T08:30:44;33.63;;;5.97;;
61635;SDS011;59438;45.014;39.006;2022-10-31T08:33:11;11.45;;;6.07;;
61635;SDS011;59438;45.014;39.006;2022-10-31T08:35:40;12.75;;;5.70;;
61635;SDS011;59438;45.014;39.006;2022-10-31T08:38:07;13.23;;;6.00;;
61635;SDS011;59438;45.014;39.006;2022-10-31T08:40:35;10.88;;;5.28;;
61635;SDS011;59438;45.014;39.006;2022-10-31T08:43:02;8.93;;;5.10;;
61635;SDS011;59438;45.014;39.006;2022-10-31T08:45:30;13.05;;;5.43;;
61635;SDS011;59438;45.014;39.006;2022-10-31T08:47:57;9.40;;;5.35;;
61635;SDS011;59438;45.014;39.006;2022-10-31T08:50:24;10.52;;;5.63;;
61635;SDS011;59438;45.014;39.006;2022-10-31T08:52:52;16.73;;;6.22;;
61635;SDS011;59438;45.014;39.006;2022-10-31T08:55:19;13.68;;;5.80;;
61635;SDS011;59438;45.014;39.006;2022-10-31T08:57:45;13.57;;;5.90;;
61635;SDS011;59438;45.014;39.006;2022-10-31T09:00:12;11.23;;;5.57;;
61635;SDS011;59438;45.014;39.006;2022-10-31T09:02:39;14.30;;;5.45;;
61635;SDS011;59438;45.014;39.006;2022-10-31T09:05:05;15.18;;;5.18;;
61635;SDS011;59438;45.014;39.006;2022-10-31T09:07:32;15.40;;;4.95;;
61635;SDS011;59438;45.014;39.006;2022-10-31T09:10:00;12.35;;;4.72;;
61635;SDS011;59438;45.014;39.006;2022-10-31T09:12:26;7.88;;;4.57;;
61635;SDS011;59438;45.014;39.006;2022-10-31T09:14:53;8.65;;;4.60;;
61635;SDS011;59438;45.014;39.006;2022-10-31T09:17:20;14.82;;;4.38;;
61635;SDS011;59438;45.014;39.006;2022-10-31T09:19:46;8.57;;;3.90;;
61635;SDS011;59438;45.014;39.006;2022-10-31T09:22:12;8.30;;;4.10;;
61635;SDS011;59438;45.014;39.006;2022-10-31T09:24:39;6.97;;;4.20;;
61635;SDS011;59438;45.014;39.006;2022-10-31T09:27:07;12.85;;;4.68;;
61635;SDS011;59438;45.014;39.006;2022-10-31T09:29:33;13.32;;;4.22;;
61635;SDS011;59438;45.014;39.006;2022-10-31T09:32:00;9.57;;;4.30;;
61635;SDS011;59438;45.014;39.006;2022-10-31T09:34:26;10.48;;;4.32;;
61635;SDS011;59438;45.014;39.006;2022-10-31T09:36:53;10.70;;;3.90;;
61635;SDS011;59438;45.014;39.006;2022-10-31T09:39:19;8.75;;;3.45;;
61635;SDS011;59438;45.014;39.006;2022-10-31T09:44:50;9.55;;;3.38;;
61635;SDS011;59438;45.014;39.006;2022-10-31T09:47:24;10.50;;;3.63;;
61635;SDS011;59438;45.014;39.006;2022-10-31T09:50:02;30.73;;;3.45;;
61635;SDS011;59438;45.014;39.006;2022-10-31T09:52:38;7.15;;;3.40;;
61635;SDS011;59438;45.014;39.006;2022-10-31T09:55:12;5.78;;;3.10;;
61635;SDS011;59438;45.014;39.006;2022-10-31T09:57:43;6.47;;;3.08;;
61635;SDS011;59438;45.014;39.006;2022-10-31T10:00:14;6.72;;;2.55;;
61635;SDS011;59438;45.014;39.006;2022-10-31T10:02:44;6.10;;;2.72;;
61635;SDS011;59438;45.014;39.006;2022-10-31T10:05:17;5.70;;;2.33;;
61635;SDS011;59438;45.014;39.006;2022-10-31T10:07:49;6.53;;;2.42;;
61635;SDS011;59438;45.014;39.006;2022-10-31T10:10:23;4.13;;;2.03;;
61635;SDS011;59438;45.014;39.006;2022-10-31T10:13:05;5.32;;;2.35;;
61635;SDS011;59438;45.014;39.006;2022-10-31T10:15:47;7.82;;;2.20;;
61635;SDS011;59438;45.014;39.006;2022-10-31T10:18:29;5.28;;;2.42;;
61635;SDS011;59438;45.014;39.006;2022-10-31T10:21:07;5.35;;;2.00;;
61635;SDS011;59438;45.014;39.006;2022-10-31T10:23:45;5.03;;;2.08;;
61635;SDS011;59438;45.014;39.006;2022-10-31T10:26:21;8.73;;;2.22;;
61635;SDS011;59438;45.014;39.006;2022-10-31T10:28:51;12.95;;;2.17;;
61635;SDS011;59438;45.014;39.006;2022-10-31T10:31:23;6.70;;;2.00;;
61635;SDS011;59438;45.014;39.006;2022-10-31T10:33:58;6.00;;;2.03;;
61635;SDS011;59438;45.014;39.006;2022-10-31T10:36:32;7.15;;;1.80;;
61635;SDS011;59438;45.014;39.006;2022-10-31T10:39:07;7.18;;;2.00;;
61635;SDS011;59438;45.014;39.006;2022-10-31T10:41:40;6.07;;;2.17;;
61635;SDS011;59438;45.014;39.006;2022-10-31T10:44:11;8.73;;;2.38;;
61635;SDS011;59438;45.014;39.006;2022-10-31T10:46:40;5.57;;;2.20;;
61635;SDS011;59438;45.014;39.006;2022-10-31T10:49:11;6.05;;;1.60;;
61635;SDS011;59438;45.014;39.006;2022-10-31T10:51:44;7.13;;;2.00;;
61635;SDS011;59438;45.014;39.006;2022-10-31T10:54:19;12.27;;;2.80;;
61635;SDS011;59438;45.014;39.006;2022-10-31T10:56:58;5.72;;;1.80;;
61635;SDS011;59438;45.014;39.006;2022-10-31T10:59:32;4.30;;;1.52;;
61635;SDS011;59438;45.014;39.006;2022-10-31T11:02:00;5.20;;;1.65;;
61635;SDS011;59438;45.014;39.006;2022-10-31T11:04:28;3.88;;;1.65;;
61635;SDS011;59438;45.014;39.006;2022-10-31T11:06:58;5.65;;;1.70;;
61635;SDS011;59438;45.014;39.006;2022-10-31T11:09:25;5.38;;;1.50;;
61635;SDS011;59438;45.014;39.006;2022-10-31T11:11:52;5.25;;;1.50;;
61635;SDS011;59438;45.014;39.006;2022-10-31T11:14:19;5.30;;;1.73;;
61635;SDS011;59438;45.014;39.006;2022-10-31T11:16:48;5.60;;;1.90;;
61635;SDS011;59438;45.014;39.006;2022-10-31T11:19:17;7.38;;;1.90;;
61635;SDS011;59438;45.014;39.006;2022-10-31T11:21:47;3.92;;;1.90;;
61635;SDS011;59438;45.014;39.006;2022-10-31T11:24:15;4.55;;;1.60;;
61635;SDS011;59438;45.014;39.006;2022-10-31T11:26:45;6.73;;;2.30;;
61635;SDS011;59438;45.014;39.006;2022-10-31T11:29:14;8.35;;;1.90;;
61635;SDS011;59438;45.014;39.006;2022-10-31T11:31:42;5.10;;;1.95;;
61635;SDS011;59438;45.014;39.006;2022-10-31T11:34:16;6.32;;;1.90;;
61635;SDS011;59438;45.014;39.006;2022-10-31T11:36:52;4.22;;;1.65;;
61635;SDS011;59438;45.014;39.006;2022-10-31T11:39:19;5.20;;;1.92;;
61635;SDS011;59438;45.014;39.006;2022-10-31T11:41:48;4.30;;;1.80;;
61635;SDS011;59438;45.014;39.006;2022-10-31T11:44:16;7.80;;;1.98;;
61635;SDS011;59438;45.014;39.006;2022-10-31T11:46:45;7.57;;;2.20;;
61635;SDS011;59438;45.014;39.006;2022-10-31T11:49:16;5.90;;;2.00;;
61635;SDS011;59438;45.014;39.006;2022-10-31T11:51:47;7.32;;;1.92;;
61635;SDS011;59438;45.014;39.006;2022-10-31T11:54:19;8.60;;;2.20;;
61635;SDS011;59438;45.014;39.006;2022-10-31T11:56:47;7.25;;;2.40;;
61635;SDS011;59438;45.014;39.006;2022-10-31T12:01:59;8.77;;;2.53;;
61635;SDS011;59438;45.014;39.006;2022-10-31T12:04:36;6.13;;;2.42;;
61635;SDS011;59438;45.014;39.006;2022-10-31T12:07:07;6.00;;;2.55;;
61635;SDS011;59438;45.014;39.006;2022-10-31T12:09:34;6.45;;;2.22;;
61635;SDS011;59438;45.014;39.006;2022-10-31T12:12:14;9.88;;;2.60;;
61635;SDS011;59438;45.014;39.006;2022-10-31T12:14:53;3.13;;;1.70;;
61635;SDS011;59438;45.014;39.006;2022-10-31T12:17:31;5.68;;;2.53;;
61635;SDS011;59438;45.014;39.006;2022-10-31T12:20:10;7.60;;;2.67;;
61635;SDS011;59438;45.014;39.006;2022-10-31T12:22:51;6.47;;;2.50;;
61635;SDS011;59438;45.014;39.006;2022-10-31T12:25:28;7.32;;;2.90;;
61635;SDS011;59438;45.014;39.006;2022-10-31T12:28:09;7.32;;;3.20;;
61635;SDS011;59438;45.014;39.006;2022-10-31T12:31:05;12.13;;;2.80;;
61635;SDS011;59438;45.014;39.006;2022-10-31T12:33:43;9.95;;;2.75;;
61635;SDS011;59438;45.014;39.006;2022-10-31T12:36:41;6.95;;;3.00;;
61635;SDS011;59438;45.014;39.006;2022-10-31T12:39:20;5.95;;;2.65;;
61635;SDS011;59438;45.014;39.006;2022-10-31T12:41:51;8.50;;;2.28;;
61635;SDS011;59438;45.014;39.006;2022-10-31T12:44:28;9.10;;;3.03;;
61635;SDS011;59438;45.014;39.006;2022-10-31T12:47:09;7.78;;;3.05;;
61635;SDS011;59438;45.014;39.006;2022-10-31T12:49:52;6.55;;;2.90;;
61635;SDS011;59438;45.014;39.006;2022-10-31T12:52:30;5.47;;;2.97;;
61635;SDS011;59438;45.014;39.006;2022-10-31T12:55:16;6.47;;;3.13;;
61635;SDS011;59438;45.014;39.006;2022-10-31T12:57:57;8.73;;;3.30;;
61635;SDS011;59438;45.014;39.006;2022-10-31T13:00:26;7.53;;;3.90;;
61635;SDS011;59438;45.014;39.006;2022-10-31T13:02:56;7.22;;;3.30;;
61635;SDS011;59438;45.014;39.006;2022-10-31T13:05:27;8.60;;;3.72;;
61635;SDS011;59438;45.014;39.006;2022-10-31T13:07:59;6.03;;;3.25;;
61635;SDS011;59438;45.014;39.006;2022-10-31T13:10:32;8.23;;;3.78;;
61635;SDS011;59438;45.014;39.006;2022-10-31T13:13:05;9.23;;;3.80;;
61635;SDS011;59438;45.014;39.006;2022-10-31T13:15:41;10.68;;;3.97;;
61635;SDS011;59438;45.014;39.006;2022-10-31T13:18:15;15.07;;;3.95;;
61635;SDS011;59438;45.014;39.006;2022-10-31T13:20:47;9.50;;;4.30;;
61635;SDS011;59438;45.014;39.006;2022-10-31T13:23:19;9.18;;;4.20;;
61635;SDS011;59438;45.014;39.006;2022-10-31T13:25:53;11.55;;;4.25;;
61635;SDS011;59438;45.014;39.006;2022-10-31T13:28:24;8.77;;;4.60;;
61635;SDS011;59438;45.014;39.006;2022-10-31T13:30:54;8.38;;;3.85;;
61635;SDS011;59438;45.014;39.006;2022-10-31T13:33:21;8.43;;;4.40;;
61635;SDS011;59438;45.014;39.006;2022-10-31T13:35:52;8.13;;;3.70;;
61635;SDS011;59438;45.014;39.006;2022-10-31T13:38:30;9.48;;;3.13;;
61635;SDS011;59438;45.014;39.006;2022-10-31T13:41:02;8.95;;;3.15;;
61635;SDS011;59438;45.014;39.006;2022-10-31T13:43:50;7.30;;;3.05;;
61635;SDS011;59438;45.014;39.006;2022-10-31T13:46:26;11.27;;;2.50;;
61635;SDS011;59438;45.014;39.006;2022-10-31T13:49:02;12.13;;;2.58;;
61635;SDS011;59438;45.014;39.006;2022-10-31T13:51:29;12.10;;;2.72;;
61635;SDS011;59438;45.014;39.006;2022-10-31T13:53:59;5.65;;;2.30;;
61635;SDS011;59438;45.014;39.006;2022-10-31T13:56:27;6.25;;;2.50;;
61635;SDS011;59438;45.014;39.006;2022-10-31T13:59:04;9.02;;;2.10;;
61635;SDS011;59438;45.014;39.006;2022-10-31T14:01:45;6.25;;;2.40;;
61635;SDS011;59438;45.014;39.006;2022-10-31T14:04:15;6.78;;;2.30;;
61635;SDS011;59438;45.014;39.006;2022-10-31T14:06:46;6.23;;;2.17;;
61635;SDS011;59438;45.014;39.006;2022-10-31T14:09:21;8.10;;;2.30;;
61635;SDS011;59438;45.014;39.006;2022-10-31T14:11:56;5.43;;;2.25;;
61635;SDS011;59438;45.014;39.006;2022-10-31T14:14:27;9.63;;;2.17;;
61635;SDS011;59438;45.014;39.006;2022-10-31T14:16:58;5.38;;;2.25;;
61635;SDS011;59438;45.014;39.006;2022-10-31T14:19:25;6.07;;;2.38;;
61635;SDS011;59438;45.014;39.006;2022-10-31T14:21:52;7.65;;;2.38;;
61635;SDS011;59438;45.014;39.006;2022-10-31T14:24:36;8.13;;;2.50;;
61635;SDS011;59438;45.014;39.006;2022-10-31T14:27:03;4.07;;;2.20;;
61635;SDS011;59438;45.014;39.006;2022-10-31T14:29:45;8.45;;;2.63;;
61635;SDS011;59438;45.014;39.006;2022-10-31T14:32:16;6.35;;;2.47;;
61635;SDS011;59438;45.014;39.006;2022-10-31T14:34:52;10.32;;;2.40;;
61635;SDS011;59438;45.014;39.006;2022-10-31T14:37:29;6.38;;;2.40;;
61635;SDS011;59438;45.014;39.006;2022-10-31T14:40:18;6.10;;;2.55;;
61635;SDS011;59438;45.014;39.006;2022-10-31T14:42:55;6.50;;;2.50;;
61635;SDS011;59438;45.014;39.006;2022-10-31T14:45:38;7.18;;;2.08;;
61635;SDS011;59438;45.014;39.006;2022-10-31T14:48:16;6.35;;;2.60;;
61635;SDS011;59438;45.014;39.006;2022-10-31T14:50:59;13.35;;;3.42;;
61635;SDS011;59438;45.014;39.006;2022-10-31T14:53:29;9.80;;;3.45;;
61635;SDS011;59438;45.014;39.006;2022-10-31T14:56:00;10.68;;;3.00;;
61635;SDS011;59438;45.014;39.006;2022-10-31T14:58:28;7.82;;;2.95;;
61635;SDS011;59438;45.014;39.006;2022-10-31T15:01:02;6.25;;;2.53;;
61635;SDS011;59438;45.014;39.006;2022-10-31T15:03:30;5.10;;;2.92;;
61635;SDS011;59438;45.014;39.006;2022-10-31T15:06:00;10.70;;;3.50;;
61635;SDS011;59438;45.014;39.006;2022-10-31T15:08:32;5.70;;;2.60;;